createdAt,value
2018-07-16T00:01:37.941Z,100133.95
2018-07-16T00:06:41.845Z,100126.04
2018-07-16T00:11:45.714Z,100122.00
2018-07-16T00:16:49.526Z,100122.31
2018-07-16T00:21:53.395Z,100127.18
2018-07-16T00:26:57.596Z,100129.70
2018-07-16T00:32:01.422Z,100129.14
2018-07-16T00:37:05.633Z,100130.18
2018-07-16T00:42:09.486Z,100120.24
2018-07-16T00:47:13.269Z,100116.55
2018-07-16T00:52:17.084Z,100120.16
2018-07-16T00:57:21.792Z,100120.62
2018-07-16T01:02:25.478Z,100118.89
2018-07-16T01:07:29.020Z,100113.35
2018-07-16T01:12:33.128Z,100117.06
2018-07-16T01:17:36.815Z,100121.70
2018-07-16T01:22:40.503Z,100124.33
2018-07-16T01:27:44.557Z,100125.73
2018-07-16T01:32:48.077Z,100131.47
2018-07-16T01:37:51.662Z,100130.66
2018-07-16T01:42:55.306Z,100121.91
2018-07-16T01:47:58.920Z,100120.16
2018-07-16T01:53:02.542Z,100127.02
2018-07-16T01:58:06.563Z,100125.94
2018-07-16T02:03:10.395Z,100129.42
2018-07-16T02:08:14.470Z,100122.63
2018-07-16T02:13:18.110Z,100112.92
2018-07-16T02:18:21.627Z,100110.66
2018-07-16T02:23:25.150Z,100117.45
2018-07-16T02:28:28.793Z,100114.45
2018-07-16T02:33:32.616Z,100109.41
2018-07-16T02:38:36.495Z,100111.06
2018-07-16T02:43:40.485Z,100105.69
2018-07-16T02:48:44.058Z,100099.77
2018-07-16T02:53:47.614Z,100095.84
2018-07-16T02:58:51.214Z,100093.22
2018-07-16T03:03:54.859Z,100097.30
2018-07-16T03:08:58.651Z,100093.80
2018-07-16T03:14:02.142Z,100102.70
2018-07-16T03:19:05.926Z,100100.06
2018-07-16T03:24:09.473Z,100104.05
2018-07-16T03:29:12.962Z,100099.97
2018-07-16T03:34:16.990Z,100103.73
2018-07-16T03:39:21.170Z,100113.91
2018-07-16T03:44:24.670Z,100109.97
2018-07-16T03:49:28.253Z,100111.48
2018-07-16T03:54:31.960Z,100113.02
2018-07-16T03:59:35.459Z,100117.70
2018-07-16T04:04:39.026Z,100114.38
2018-07-16T04:09:42.638Z,100106.99
2018-07-16T04:14:46.205Z,100106.81
2018-07-16T04:19:49.765Z,100100.06
2018-07-16T04:24:53.786Z,100104.87
2018-07-16T04:29:57.777Z,100096.59
2018-07-16T04:35:02.820Z,100101.92
2018-07-16T04:40:08.158Z,100108.92
2018-07-16T04:45:11.994Z,100100.53
2018-07-16T04:50:15.476Z,100109.60
2018-07-16T04:55:19.054Z,100098.52
2018-07-16T05:00:23.263Z,100091.94
2018-07-16T05:05:26.970Z,100096.09
2018-07-16T05:10:30.578Z,100095.77
2018-07-16T05:15:34.117Z,100097.11
2018-07-16T05:20:37.593Z,100100.58
2018-07-16T05:25:41.226Z,100100.36
2018-07-16T05:30:45.100Z,100104.27
2018-07-16T05:35:48.622Z,100101.33
2018-07-16T05:40:52.181Z,100098.72
2018-07-16T05:45:55.678Z,100099.08
2018-07-16T05:50:59.230Z,100092.58
2018-07-16T05:56:02.854Z,100086.59
2018-07-16T06:01:06.763Z,100086.08
2018-07-16T06:06:10.759Z,100083.66
2018-07-16T06:11:15.362Z,100076.94
2018-07-16T06:16:19.115Z,100069.20
2018-07-16T06:21:22.837Z,100068.58
2018-07-16T06:26:27.011Z,100075.31
2018-07-16T06:31:30.635Z,100070.83
2018-07-16T06:36:34.476Z,100069.59
2018-07-16T06:41:38.066Z,100066.44
2018-07-16T06:46:41.615Z,100067.69
2018-07-16T06:51:45.827Z,100071.05
2018-07-16T06:56:49.512Z,100071.42
2018-07-16T07:01:53.016Z,100067.43
2018-07-16T07:06:56.765Z,100067.73
2018-07-16T07:12:00.286Z,100066.98
2018-07-16T07:17:03.793Z,100061.37
2018-07-16T07:22:08.301Z,100057.87
2018-07-16T07:27:11.902Z,100056.34
2018-07-16T07:32:15.842Z,100050.94
2018-07-16T07:37:19.950Z,100054.20
2018-07-16T07:42:24.050Z,100052.06
2018-07-16T07:47:28.459Z,100051.78
2018-07-16T07:52:32.084Z,100046.41
2018-07-16T07:57:35.942Z,100053.72
2018-07-16T08:02:39.531Z,100048.56
2018-07-16T08:07:43.643Z,100043.97
2018-07-16T08:12:47.177Z,100043.13
2018-07-16T08:17:50.878Z,100036.62
2018-07-16T08:22:54.377Z,100040.31
2018-07-16T08:27:58.117Z,100037.67
2018-07-16T08:33:01.753Z,100043.13
2018-07-16T08:38:05.864Z,100036.10
2018-07-16T08:43:10.306Z,100039.59
2018-07-16T08:48:13.802Z,100032.47
2018-07-16T08:53:17.581Z,100030.47
2018-07-16T08:58:21.769Z,100029.94
2018-07-16T09:03:25.270Z,100030.90
2018-07-16T09:08:28.871Z,100033.30
2018-07-16T09:13:32.691Z,100028.83
2018-07-16T09:18:36.169Z,100030.22
2018-07-16T09:23:40.095Z,100026.59
2018-07-16T09:28:43.697Z,100023.45
2018-07-16T09:33:48.158Z,100023.78
2018-07-16T09:38:52.365Z,100024.69
2018-07-16T09:43:56.417Z,100028.48
2018-07-16T09:49:00.282Z,100023.30
2018-07-16T09:54:03.925Z,100016.88
2018-07-16T09:59:08.474Z,100014.20
2018-07-16T10:04:13.182Z,100006.45
2018-07-16T10:09:16.859Z,100004.95
2018-07-16T10:14:21.193Z,99999.38
2018-07-16T10:19:25.175Z,100002.90
2018-07-16T10:24:29.161Z,99995.55
2018-07-16T10:29:34.408Z,99989.21
2018-07-16T10:34:38.589Z,99986.02
2018-07-16T10:39:42.576Z,99977.91
2018-07-16T10:44:47.063Z,99966.40
2018-07-16T10:49:51.415Z,99964.52
2018-07-16T10:54:55.778Z,99966.42
2018-07-16T11:00:05.493Z,99959.38
2018-07-16T11:05:09.528Z,99951.56
2018-07-16T11:10:13.897Z,99948.11
2018-07-16T11:15:18.103Z,99944.73
2018-07-16T11:20:21.977Z,99945.23
2018-07-16T11:25:25.476Z,99944.34
2018-07-16T11:30:28.993Z,99935.89
2018-07-16T11:35:33.288Z,99932.00
2018-07-16T11:40:41.527Z,99926.45
2018-07-16T11:45:46.486Z,99914.72
2018-07-16T11:50:51.704Z,99913.98
2018-07-16T11:55:55.672Z,99904.72
2018-07-16T12:00:59.910Z,99890.98
2018-07-16T12:06:08.046Z,99889.27
2018-07-16T12:11:12.362Z,99888.76
2018-07-16T12:16:16.495Z,99893.78
2018-07-16T12:21:20.471Z,99886.08
2018-07-16T12:26:24.624Z,99870.16
2018-07-16T12:31:29.594Z,99862.66
2018-07-16T12:36:33.577Z,99866.00
2018-07-16T12:41:38.000Z,99867.23
2018-07-16T12:46:43.074Z,99857.22
2018-07-16T12:51:47.200Z,99844.47
2018-07-16T12:56:51.523Z,99838.19
2018-07-16T13:01:55.946Z,99837.55
2018-07-16T13:07:00.618Z,99821.62
2018-07-16T13:12:05.162Z,99827.86
2018-07-16T13:17:09.307Z,99817.30
2018-07-16T13:22:13.302Z,99814.33
2018-07-16T13:27:16.920Z,99800.89
2018-07-16T13:32:20.420Z,99803.61
2018-07-16T13:37:24.231Z,99793.44
2018-07-16T13:42:27.786Z,99788.50
2018-07-16T13:47:31.352Z,99788.99
2018-07-16T13:52:35.151Z,99775.06
2018-07-16T13:57:39.161Z,99771.41
2018-07-16T14:02:42.997Z,99766.68
2018-07-16T14:07:47.328Z,99769.83
2018-07-16T14:12:51.893Z,99768.38
2018-07-16T14:17:55.475Z,99762.58
2018-07-16T14:22:59.228Z,99761.64
2018-07-16T14:28:03.375Z,99760.51
2018-07-16T14:33:08.154Z,99760.27
2018-07-16T14:38:12.847Z,99750.53
2018-07-16T14:43:18.174Z,99749.34
2018-07-16T14:48:23.396Z,99749.50
2018-07-16T14:53:28.343Z,99747.39
2018-07-16T14:58:33.276Z,99741.43
2018-07-16T15:03:37.950Z,99741.14
2018-07-16T15:08:42.677Z,99732.77
2018-07-16T15:13:47.391Z,99731.45
2018-07-16T15:18:51.362Z,99723.42
2018-07-16T15:23:55.507Z,99717.30
2018-07-16T15:29:00.170Z,99721.58
2018-07-16T15:34:04.190Z,99720.01
2018-07-16T15:39:08.998Z,99716.63
2018-07-16T15:44:12.640Z,99716.99
2018-07-16T15:49:17.631Z,99715.77
2018-07-16T15:54:21.686Z,99711.89
2018-07-16T15:59:26.572Z,99711.06
2018-07-16T16:04:30.241Z,99706.41
2018-07-16T16:09:34.953Z,99705.66
2018-07-16T16:14:38.957Z,99703.27
2018-07-16T16:19:42.798Z,99697.22
2018-07-16T16:24:47.804Z,99693.08
2018-07-16T16:29:51.786Z,99681.46
2018-07-16T16:34:56.053Z,99678.91
2018-07-16T16:45:10.348Z,99681.45
2018-07-16T16:50:15.014Z,99680.36
2018-07-16T16:55:20.833Z,99684.06
2018-07-16T17:00:24.997Z,99673.83
2018-07-16T17:05:29.370Z,99677.23
2018-07-16T17:10:33.893Z,99669.05
2018-07-16T17:15:38.431Z,99669.70
2018-07-16T17:20:42.521Z,99661.48
2018-07-16T17:25:47.055Z,99668.89
2018-07-16T17:30:51.558Z,99661.81
2018-07-16T17:35:56.496Z,99665.16
2018-07-16T17:41:00.253Z,99667.11
2018-07-16T17:46:04.730Z,99669.77
2018-07-16T17:51:08.351Z,99668.95
2018-07-16T17:56:12.912Z,99677.84
2018-07-16T18:01:18.260Z,99678.23
2018-07-16T18:06:22.409Z,99679.13
2018-07-16T18:11:27.172Z,99672.82
2018-07-16T18:16:32.487Z,99675.50
2018-07-16T18:21:37.209Z,99679.02
2018-07-16T18:26:41.370Z,99677.88
2018-07-16T18:31:46.315Z,99682.38
2018-07-16T18:36:50.908Z,99687.03
2018-07-16T18:41:55.862Z,99688.02
2018-07-16T18:47:01.175Z,99690.97
2018-07-16T18:52:05.920Z,99699.02
2018-07-16T18:57:09.911Z,99699.52
2018-07-16T19:02:15.602Z,99696.15
2018-07-16T19:07:22.755Z,99704.91
2018-07-16T19:12:27.184Z,99707.09
2018-07-16T19:17:31.903Z,99702.50
2018-07-16T19:22:36.534Z,99711.96
2018-07-16T19:27:41.610Z,99715.70
2018-07-16T19:32:46.011Z,99722.47
2018-07-16T19:37:50.638Z,99725.07
2018-07-16T19:42:55.695Z,99727.02
2018-07-16T19:48:00.351Z,99737.67
2018-07-16T19:53:04.887Z,99741.39
2018-07-16T19:58:08.691Z,99738.88
2018-07-16T20:03:12.269Z,99734.92
2018-07-16T20:08:16.065Z,99735.65
2018-07-16T20:13:19.885Z,99732.81
2018-07-16T20:18:23.526Z,99735.28
2018-07-16T20:23:27.002Z,99739.68
2018-07-16T20:28:30.571Z,99742.91
2018-07-16T20:33:34.212Z,99747.81
2018-07-16T20:38:39.236Z,99752.64
2018-07-16T20:43:42.927Z,99748.17
2018-07-16T20:48:46.434Z,99757.97
2018-07-16T20:53:50.794Z,99756.45
2018-07-16T20:58:54.448Z,99756.89
2018-07-16T21:03:58.117Z,99763.44
2018-07-16T21:09:02.282Z,99760.45
2018-07-16T21:14:05.783Z,99762.90
2018-07-16T21:19:09.701Z,99774.24
2018-07-16T21:24:13.734Z,99771.81
2018-07-16T21:29:18.255Z,99769.36
2018-07-16T21:34:22.031Z,99774.79
2018-07-16T21:39:25.885Z,99771.56
2018-07-16T21:44:29.550Z,99769.94
2018-07-16T21:49:33.080Z,99775.50
2018-07-16T21:54:36.717Z,99779.11
2018-07-16T21:59:40.362Z,99787.45
2018-07-16T22:04:44.369Z,99792.05
2018-07-16T22:09:48.003Z,99794.73
2018-07-16T22:14:51.554Z,99788.70
2018-07-16T22:19:55.040Z,99799.79
2018-07-16T22:24:59.021Z,99801.13
2018-07-16T22:30:04.106Z,99796.97
2018-07-16T22:35:07.870Z,99796.70
2018-07-16T22:40:11.407Z,99791.86
2018-07-16T22:45:15.114Z,99796.58
2018-07-16T22:50:19.573Z,99791.59
2018-07-16T22:55:23.133Z,99794.11
2018-07-16T23:00:26.703Z,99794.28
2018-07-16T23:05:30.222Z,99791.20
2018-07-16T23:10:33.744Z,99796.83
2018-07-16T23:15:37.375Z,99790.16
2018-07-16T23:20:40.947Z,99785.00
2018-07-16T23:25:44.908Z,99787.70
2018-07-16T23:30:48.639Z,99799.33
2018-07-16T23:35:52.726Z,99805.45
2018-07-16T23:40:56.478Z,99802.22
2018-07-16T23:46:00.019Z,99794.27
2018-07-16T23:51:03.850Z,99788.75
2018-07-16T23:56:07.527Z,99793.23
